sensor_id;sensor_type;location;lat;lon;timestamp;P1;durP1;ratioP1;P2;durP2;ratioP2
3847;SDS011;1939;48.720;9.166;2023-08-24T00:00:12;11.23;;;9.60;;
3847;SDS011;1939;48.720;9.166;2023-08-24T00:02:38;15.37;;;9.97;;
3847;SDS011;1939;48.720;9.166;2023-08-24T00:05:03;21.90;;;10.93;;
3847;SDS011;1939;48.720;9.166;2023-08-24T00:07:29;10.93;;;9.77;;
3847;SDS011;1939;48.720;9.166;2023-08-24T00:09:54;11.60;;;10.40;;
3847;SDS011;1939;48.720;9.166;2023-08-24T00:12:19;14.00;;;10.70;;
3847;SDS011;1939;48.720;9.166;2023-08-24T00:14:45;13.77;;;11.30;;
3847;SDS011;1939;48.720;9.166;2023-08-24T00:17:10;15.53;;;10.50;;
3847;SDS011;1939;48.720;9.166;2023-08-24T00:19:36;13.07;;;10.67;;
3847;SDS011;1939;48.720;9.166;2023-08-24T00:22:01;12.50;;;11.20;;
3847;SDS011;1939;48.720;9.166;2023-08-24T00:24:26;11.60;;;9.47;;
3847;SDS011;1939;48.720;9.166;2023-08-24T00:26:51;16.27;;;11.03;;
3847;SDS011;1939;48.720;9.166;2023-08-24T00:29:16;11.47;;;10.20;;
3847;SDS011;1939;48.720;9.166;2023-08-24T00:31:42;12.90;;;9.53;;
3847;SDS011;1939;48.720;9.166;2023-08-24T00:34:07;15.13;;;10.90;;
3847;SDS011;1939;48.720;9.166;2023-08-24T00:36:32;11.80;;;10.20;;
3847;SDS011;1939;48.720;9.166;2023-08-24T00:38:58;15.20;;;10.57;;
3847;SDS011;1939;48.720;9.166;2023-08-24T00:41:23;15.97;;;11.23;;
3847;SDS011;1939;48.720;9.166;2023-08-24T00:43:50;13.80;;;11.27;;
3847;SDS011;1939;48.720;9.166;2023-08-24T00:46:15;12.10;;;10.80;;
3847;SDS011;1939;48.720;9.166;2023-08-24T00:48:40;12.60;;;10.63;;
3847;SDS011;1939;48.720;9.166;2023-08-24T00:51:06;18.77;;;12.07;;
3847;SDS011;1939;48.720;9.166;2023-08-24T00:53:31;11.27;;;10.23;;
3847;SDS011;1939;48.720;9.166;2023-08-24T00:55:56;16.27;;;10.07;;
3847;SDS011;1939;48.720;9.166;2023-08-24T00:58:22;13.20;;;10.80;;
3847;SDS011;1939;48.720;9.166;2023-08-24T01:00:52;12.90;;;10.90;;
3847;SDS011;1939;48.720;9.166;2023-08-24T01:03:18;10.83;;;9.70;;
3847;SDS011;1939;48.720;9.166;2023-08-24T01:05:43;13.07;;;11.53;;
3847;SDS011;1939;48.720;9.166;2023-08-24T01:08:09;11.07;;;10.00;;
3847;SDS011;1939;48.720;9.166;2023-08-24T01:10:39;18.80;;;11.97;;
3847;SDS011;1939;48.720;9.166;2023-08-24T01:13:07;14.33;;;12.33;;
3847;SDS011;1939;48.720;9.166;2023-08-24T01:15:51;13.57;;;10.47;;
3847;SDS011;1939;48.720;9.166;2023-08-24T01:18:20;13.60;;;10.60;;
3847;SDS011;1939;48.720;9.166;2023-08-24T01:20:47;19.30;;;11.20;;
3847;SDS011;1939;48.720;9.166;2023-08-24T01:28:05;16.37;;;10.93;;
3847;SDS011;1939;48.720;9.166;2023-08-24T01:30:30;15.30;;;12.00;;
3847;SDS011;1939;48.720;9.166;2023-08-24T01:32:56;12.20;;;9.90;;
3847;SDS011;1939;48.720;9.166;2023-08-24T01:35:21;13.87;;;11.70;;
3847;SDS011;1939;48.720;9.166;2023-08-24T01:37:46;22.83;;;12.50;;
3847;SDS011;1939;48.720;9.166;2023-08-24T01:40:16;18.57;;;11.77;;
3847;SDS011;1939;48.720;9.166;2023-08-24T01:42:48;14.80;;;10.27;;
3847;SDS011;1939;48.720;9.166;2023-08-24T01:45:16;19.30;;;13.17;;
3847;SDS011;1939;48.720;9.166;2023-08-24T01:47:43;13.73;;;12.27;;
3847;SDS011;1939;48.720;9.166;2023-08-24T01:50:09;14.10;;;12.07;;
3847;SDS011;1939;48.720;9.166;2023-08-24T01:52:34;15.13;;;12.30;;
3847;SDS011;1939;48.720;9.166;2023-08-24T01:55:00;15.57;;;12.73;;
3847;SDS011;1939;48.720;9.166;2023-08-24T01:57:25;16.47;;;11.27;;
3847;SDS011;1939;48.720;9.166;2023-08-24T01:59:50;14.23;;;12.00;;
3847;SDS011;1939;48.720;9.166;2023-08-24T02:02:16;15.93;;;11.90;;
3847;SDS011;1939;48.720;9.166;2023-08-24T02:04:42;14.73;;;12.33;;
3847;SDS011;1939;48.720;9.166;2023-08-24T02:07:07;12.07;;;10.87;;
3847;SDS011;1939;48.720;9.166;2023-08-24T02:09:32;17.00;;;12.93;;
3847;SDS011;1939;48.720;9.166;2023-08-24T02:11:57;12.03;;;10.80;;
3847;SDS011;1939;48.720;9.166;2023-08-24T02:14:23;13.10;;;11.30;;
3847;SDS011;1939;48.720;9.166;2023-08-24T02:16:48;13.00;;;10.80;;
3847;SDS011;1939;48.720;9.166;2023-08-24T02:19:13;12.63;;;11.17;;
3847;SDS011;1939;48.720;9.166;2023-08-24T02:21:39;13.40;;;12.00;;
3847;SDS011;1939;48.720;9.166;2023-08-24T02:24:04;16.87;;;11.60;;
3847;SDS011;1939;48.720;9.166;2023-08-24T02:26:29;13.30;;;12.00;;
3847;SDS011;1939;48.720;9.166;2023-08-24T02:28:56;16.03;;;13.57;;
3847;SDS011;1939;48.720;9.166;2023-08-24T02:31:22;15.73;;;12.13;;
3847;SDS011;1939;48.720;9.166;2023-08-24T02:33:47;13.50;;;11.00;;
3847;SDS011;1939;48.720;9.166;2023-08-24T02:36:14;16.90;;;12.37;;
3847;SDS011;1939;48.720;9.166;2023-08-24T02:38:39;15.53;;;11.87;;
3847;SDS011;1939;48.720;9.166;2023-08-24T02:41:05;23.87;;;13.10;;
3847;SDS011;1939;48.720;9.166;2023-08-24T02:43:31;12.77;;;11.40;;
3847;SDS011;1939;48.720;9.166;2023-08-24T02:45:59;21.23;;;13.50;;
3847;SDS011;1939;48.720;9.166;2023-08-24T02:48:24;19.10;;;12.70;;
3847;SDS011;1939;48.720;9.166;2023-08-24T02:50:50;19.70;;;12.13;;
3847;SDS011;1939;48.720;9.166;2023-08-24T02:53:15;14.20;;;12.50;;
3847;SDS011;1939;48.720;9.166;2023-08-24T02:55:40;15.83;;;12.57;;
3847;SDS011;1939;48.720;9.166;2023-08-24T02:58:05;17.27;;;11.97;;
3847;SDS011;1939;48.720;9.166;2023-08-24T03:00:30;16.33;;;13.00;;
3847;SDS011;1939;48.720;9.166;2023-08-24T03:02:56;13.90;;;12.40;;
3847;SDS011;1939;48.720;9.166;2023-08-24T03:05:21;14.77;;;11.40;;
3847;SDS011;1939;48.720;9.166;2023-08-24T03:07:46;13.27;;;11.80;;
3847;SDS011;1939;48.720;9.166;2023-08-24T03:10:12;18.27;;;11.20;;
3847;SDS011;1939;48.720;9.166;2023-08-24T03:12:37;12.60;;;11.30;;
3847;SDS011;1939;48.720;9.166;2023-08-24T03:15:02;15.13;;;12.80;;
3847;SDS011;1939;48.720;9.166;2023-08-24T03:17:27;14.87;;;12.23;;
3847;SDS011;1939;48.720;9.166;2023-08-24T03:19:53;14.60;;;12.43;;
3847;SDS011;1939;48.720;9.166;2023-08-24T03:22:18;15.23;;;11.67;;
3847;SDS011;1939;48.720;9.166;2023-08-24T03:24:43;13.87;;;11.70;;
3847;SDS011;1939;48.720;9.166;2023-08-24T03:27:08;15.87;;;12.77;;
3847;SDS011;1939;48.720;9.166;2023-08-24T03:29:34;14.40;;;12.40;;
3847;SDS011;1939;48.720;9.166;2023-08-24T03:31:59;16.20;;;12.73;;
3847;SDS011;1939;48.720;9.166;2023-08-24T03:34:24;14.57;;;12.83;;
3847;SDS011;1939;48.720;9.166;2023-08-24T03:36:49;17.00;;;12.80;;
3847;SDS011;1939;48.720;9.166;2023-08-24T03:39:15;15.17;;;11.90;;
3847;SDS011;1939;48.720;9.166;2023-08-24T03:41:43;13.83;;;12.30;;
3847;SDS011;1939;48.720;9.166;2023-08-24T03:44:08;17.70;;;13.07;;
3847;SDS011;1939;48.720;9.166;2023-08-24T03:46:33;16.83;;;13.37;;
3847;SDS011;1939;48.720;9.166;2023-08-24T03:48:59;13.63;;;12.23;;
3847;SDS011;1939;48.720;9.166;2023-08-24T03:51:24;19.73;;;12.17;;
3847;SDS011;1939;48.720;9.166;2023-08-24T03:53:49;14.50;;;12.97;;
3847;SDS011;1939;48.720;9.166;2023-08-24T03:56:14;12.73;;;10.33;;
3847;SDS011;1939;48.720;9.166;2023-08-24T03:58:40;16.30;;;11.73;;
3847;SDS011;1939;48.720;9.166;2023-08-24T04:01:09;11.60;;;10.50;;
3847;SDS011;1939;48.720;9.166;2023-08-24T04:03:34;13.90;;;12.50;;
3847;SDS011;1939;48.720;9.166;2023-08-24T04:05:59;18.03;;;11.47;;
3847;SDS011;1939;48.720;9.166;2023-08-24T04:08:25;14.70;;;11.87;;
3847;SDS011;1939;48.720;9.166;2023-08-24T04:10:50;17.40;;;11.47;;
3847;SDS011;1939;48.720;9.166;2023-08-24T04:13:15;21.07;;;12.90;;
3847;SDS011;1939;48.720;9.166;2023-08-24T04:15:40;16.83;;;11.30;;
3847;SDS011;1939;48.720;9.166;2023-08-24T04:18:06;12.00;;;10.43;;
3847;SDS011;1939;48.720;9.166;2023-08-24T04:20:31;13.20;;;10.80;;
3847;SDS011;1939;48.720;9.166;2023-08-24T04:22:56;14.90;;;12.57;;
3847;SDS011;1939;48.720;9.166;2023-08-24T04:25:21;16.70;;;11.97;;
3847;SDS011;1939;48.720;9.166;2023-08-24T04:27:46;14.00;;;12.53;;
3847;SDS011;1939;48.720;9.166;2023-08-24T04:30:12;14.13;;;11.33;;
3847;SDS011;1939;48.720;9.166;2023-08-24T04:32:38;14.03;;;12.70;;
3847;SDS011;1939;48.720;9.166;2023-08-24T04:35:04;13.33;;;11.93;;
3847;SDS011;1939;48.720;9.166;2023-08-24T04:37:29;22.30;;;12.30;;
3847;SDS011;1939;48.720;9.166;2023-08-24T04:39:55;20.30;;;14.03;;
3847;SDS011;1939;48.720;9.166;2023-08-24T04:42:20;20.80;;;13.60;;
3847;SDS011;1939;48.720;9.166;2023-08-24T04:44:45;14.87;;;13.30;;
3847;SDS011;1939;48.720;9.166;2023-08-24T04:47:10;14.03;;;11.83;;
3847;SDS011;1939;48.720;9.166;2023-08-24T04:49:36;16.93;;;12.30;;
3847;SDS011;1939;48.720;9.166;2023-08-24T04:52:01;14.77;;;12.77;;
3847;SDS011;1939;48.720;9.166;2023-08-24T04:54:27;14.17;;;12.47;;
3847;SDS011;1939;48.720;9.166;2023-08-24T04:56:52;16.77;;;13.00;;
3847;SDS011;1939;48.720;9.166;2023-08-24T04:59:17;15.40;;;11.90;;
3847;SDS011;1939;48.720;9.166;2023-08-24T05:01:42;17.00;;;12.43;;
3847;SDS011;1939;48.720;9.166;2023-08-24T05:04:07;15.30;;;12.97;;
3847;SDS011;1939;48.720;9.166;2023-08-24T05:06:33;18.80;;;12.60;;
3847;SDS011;1939;48.720;9.166;2023-08-24T05:08:58;14.43;;;12.30;;
3847;SDS011;1939;48.720;9.166;2023-08-24T05:11:24;14.57;;;12.60;;
3847;SDS011;1939;48.720;9.166;2023-08-24T05:13:49;13.23;;;11.83;;
3847;SDS011;1939;48.720;9.166;2023-08-24T05:16:15;13.70;;;11.47;;
3847;SDS011;1939;48.720;9.166;2023-08-24T05:18:40;15.50;;;11.50;;
3847;SDS011;1939;48.720;9.166;2023-08-24T05:21:05;20.43;;;11.97;;
3847;SDS011;1939;48.720;9.166;2023-08-24T05:23:31;12.87;;;10.77;;
3847;SDS011;1939;48.720;9.166;2023-08-24T05:25:57;11.43;;;10.23;;
3847;SDS011;1939;48.720;9.166;2023-08-24T05:28:23;16.33;;;11.33;;
3847;SDS011;1939;48.720;9.166;2023-08-24T05:30:48;14.70;;;10.90;;
3847;SDS011;1939;48.720;9.166;2023-08-24T05:33:13;14.60;;;11.37;;
3847;SDS011;1939;48.720;9.166;2023-08-24T05:35:39;14.50;;;12.40;;
3847;SDS011;1939;48.720;9.166;2023-08-24T05:38:04;13.27;;;10.30;;
3847;SDS011;1939;48.720;9.166;2023-08-24T05:40:29;21.17;;;11.73;;
3847;SDS011;1939;48.720;9.166;2023-08-24T05:42:55;24.00;;;11.30;;
3847;SDS011;1939;48.720;9.166;2023-08-24T05:45:20;17.30;;;13.30;;
3847;SDS011;1939;48.720;9.166;2023-08-24T05:47:45;18.07;;;11.60;;
3847;SDS011;1939;48.720;9.166;2023-08-24T05:50:10;18.43;;;11.80;;
3847;SDS011;1939;48.720;9.166;2023-08-24T05:52:36;12.07;;;10.83;;
3847;SDS011;1939;48.720;9.166;2023-08-24T05:55:02;12.50;;;11.30;;
3847;SDS011;1939;48.720;9.166;2023-08-24T05:57:27;15.57;;;10.57;;
3847;SDS011;1939;48.720;9.166;2023-08-24T05:59:52;12.50;;;10.57;;
3847;SDS011;1939;48.720;9.166;2023-08-24T06:02:17;12.07;;;10.33;;
3847;SDS011;1939;48.720;9.166;2023-08-24T06:04:43;18.77;;;10.70;;
3847;SDS011;1939;48.720;9.166;2023-08-24T06:07:08;23.20;;;10.90;;
3847;SDS011;1939;48.720;9.166;2023-08-24T06:09:33;16.37;;;10.93;;
3847;SDS011;1939;48.720;9.166;2023-08-24T06:11:59;11.50;;;10.40;;
3847;SDS011;1939;48.720;9.166;2023-08-24T06:14:25;12.70;;;10.07;;
3847;SDS011;1939;48.720;9.166;2023-08-24T06:16:50;22.13;;;9.90;;
3847;SDS011;1939;48.720;9.166;2023-08-24T06:19:18;11.87;;;10.10;;
3847;SDS011;1939;48.720;9.166;2023-08-24T06:21:43;13.03;;;9.83;;
3847;SDS011;1939;48.720;9.166;2023-08-24T06:24:08;15.13;;;9.50;;
3847;SDS011;1939;48.720;9.166;2023-08-24T06:26:34;10.27;;;9.30;;
3847;SDS011;1939;48.720;9.166;2023-08-24T06:28:59;13.17;;;9.60;;
3847;SDS011;1939;48.720;9.166;2023-08-24T06:31:24;10.00;;;8.90;;
3847;SDS011;1939;48.720;9.166;2023-08-24T06:33:49;13.53;;;9.63;;
3847;SDS011;1939;48.720;9.166;2023-08-24T06:36:14;18.70;;;9.10;;
3847;SDS011;1939;48.720;9.166;2023-08-24T06:38:40;13.10;;;9.20;;
3847;SDS011;1939;48.720;9.166;2023-08-24T06:41:05;12.80;;;8.53;;
3847;SDS011;1939;48.720;9.166;2023-08-24T06:43:30;13.33;;;11.03;;
3847;SDS011;1939;48.720;9.166;2023-08-24T06:45:56;10.10;;;9.00;;
3847;SDS011;1939;48.720;9.166;2023-08-24T06:48:21;9.87;;;8.10;;
3847;SDS011;1939;48.720;9.166;2023-08-24T06:50:46;10.23;;;8.77;;
3847;SDS011;1939;48.720;9.166;2023-08-24T06:53:11;13.77;;;9.47;;
3847;SDS011;1939;48.720;9.166;2023-08-24T06:55:37;8.77;;;7.50;;
3847;SDS011;1939;48.720;9.166;2023-08-24T06:58:02;15.20;;;8.60;;
3847;SDS011;1939;48.720;9.166;2023-08-24T07:00:30;11.60;;;8.90;;
3847;SDS011;1939;48.720;9.166;2023-08-24T07:02:55;12.57;;;7.83;;
3847;SDS011;1939;48.720;9.166;2023-08-24T07:05:20;13.70;;;9.60;;
3847;SDS011;1939;48.720;9.166;2023-08-24T07:07:46;16.13;;;8.50;;
3847;SDS011;1939;48.720;9.166;2023-08-24T07:10:12;15.70;;;9.40;;
3847;SDS011;1939;48.720;9.166;2023-08-24T07:12:37;12.53;;;7.83;;
3847;SDS011;1939;48.720;9.166;2023-08-24T07:15:05;9.90;;;8.90;;
3847;SDS011;1939;48.720;9.166;2023-08-24T07:17:31;8.20;;;7.20;;
3847;SDS011;1939;48.720;9.166;2023-08-24T07:19:56;10.40;;;6.70;;
3847;SDS011;1939;48.720;9.166;2023-08-24T07:22:21;11.03;;;7.17;;
3847;SDS011;1939;48.720;9.166;2023-08-24T07:24:46;11.17;;;6.67;;
3847;SDS011;1939;48.720;9.166;2023-08-24T07:27:17;12.70;;;7.13;;
3847;SDS011;1939;48.720;9.166;2023-08-24T07:29:42;9.27;;;7.30;;
3847;SDS011;1939;48.720;9.166;2023-08-24T07:32:07;7.90;;;6.27;;
3847;SDS011;1939;48.720;9.166;2023-08-24T07:34:33;8.80;;;6.50;;
3847;SDS011;1939;48.720;9.166;2023-08-24T07:36:58;10.57;;;5.90;;
3847;SDS011;1939;48.720;9.166;2023-08-24T07:39:23;10.83;;;5.97;;
3847;SDS011;1939;48.720;9.166;2023-08-24T07:41:48;11.07;;;6.47;;
3847;SDS011;1939;48.720;9.166;2023-08-24T07:44:13;7.93;;;5.67;;
3847;SDS011;1939;48.720;9.166;2023-08-24T07:46:39;8.00;;;5.30;;
3847;SDS011;1939;48.720;9.166;2023-08-24T07:49:05;6.47;;;4.90;;
3847;SDS011;1939;48.720;9.166;2023-08-24T07:51:30;8.50;;;5.00;;
3847;SDS011;1939;48.720;9.166;2023-08-24T07:53:55;7.17;;;4.57;;
3847;SDS011;1939;48.720;9.166;2023-08-24T07:56:20;6.43;;;3.73;;
3847;SDS011;1939;48.720;9.166;2023-08-24T07:58:47;5.00;;;3.80;;
3847;SDS011;1939;48.720;9.166;2023-08-24T08:01:13;11.63;;;4.23;;
3847;SDS011;1939;48.720;9.166;2023-08-24T08:03:38;4.90;;;3.37;;
3847;SDS011;1939;48.720;9.166;2023-08-24T08:06:03;8.60;;;4.30;;
3847;SDS011;1939;48.720;9.166;2023-08-24T08:08:29;11.53;;;4.00;;
3847;SDS011;1939;48.720;9.166;2023-08-24T08:10:58;5.30;;;3.43;;
3847;SDS011;1939;48.720;9.166;2023-08-24T08:13:25;4.30;;;3.27;;
3847;SDS011;1939;48.720;9.166;2023-08-24T08:15:50;4.57;;;3.43;;
3847;SDS011;1939;48.720;9.166;2023-08-24T08:18:15;3.40;;;3.10;;
3847;SDS011;1939;48.720;9.166;2023-08-24T08:20:40;3.37;;;3.07;;
3847;SDS011;1939;48.720;9.166;2023-08-24T08:23:06;6.93;;;2.93;;
3847;SDS011;1939;48.720;9.166;2023-08-24T08:25:31;2.97;;;2.83;;
3847;SDS011;1939;48.720;9.166;2023-08-24T08:27:56;2.97;;;2.80;;
3847;SDS011;1939;48.720;9.166;2023-08-24T08:30:21;3.80;;;3.40;;
3847;SDS011;1939;48.720;9.166;2023-08-24T08:32:47;3.13;;;2.93;;
3847;SDS011;1939;48.720;9.166;2023-08-24T08:35:12;3.73;;;3.30;;
3847;SDS011;1939;48.720;9.166;2023-08-24T08:37:37;3.30;;;2.80;;
3847;SDS011;1939;48.720;9.166;2023-08-24T08:40:03;5.13;;;3.73;;
3847;SDS011;1939;48.720;9.166;2023-08-24T08:42:32;3.90;;;3.30;;
3847;SDS011;1939;48.720;9.166;2023-08-24T08:44:59;3.63;;;3.30;;
3847;SDS011;1939;48.720;9.166;2023-08-24T08:47:24;6.13;;;2.90;;
3847;SDS011;1939;48.720;9.166;2023-08-24T08:49:50;3.93;;;3.63;;
3847;SDS011;1939;48.720;9.166;2023-08-24T08:52:15;4.20;;;3.80;;
3847;SDS011;1939;48.720;9.166;2023-08-24T08:54:40;3.77;;;3.43;;
3847;SDS011;1939;48.720;9.166;2023-08-24T08:57:06;5.00;;;3.60;;
3847;SDS011;1939;48.720;9.166;2023-08-24T08:59:31;4.40;;;3.20;;
3847;SDS011;1939;48.720;9.166;2023-08-24T09:01:57;3.50;;;3.30;;
3847;SDS011;1939;48.720;9.166;2023-08-24T09:04:26;4.33;;;3.20;;
3847;SDS011;1939;48.720;9.166;2023-08-24T09:06:52;4.10;;;3.80;;
3847;SDS011;1939;48.720;9.166;2023-08-24T09:09:17;5.20;;;3.90;;
3847;SDS011;1939;48.720;9.166;2023-08-24T09:11:43;4.70;;;3.87;;
3847;SDS011;1939;48.720;9.166;2023-08-24T09:14:12;3.80;;;3.60;;
3847;SDS011;1939;48.720;9.166;2023-08-24T09:16:37;5.23;;;3.20;;
3847;SDS011;1939;48.720;9.166;2023-08-24T09:19:04;4.57;;;3.27;;
3847;SDS011;1939;48.720;9.166;2023-08-24T09:21:30;2.73;;;2.53;;
3847;SDS011;1939;48.720;9.166;2023-08-24T09:23:56;4.50;;;3.00;;
3847;SDS011;1939;48.720;9.166;2023-08-24T09:26:30;4.33;;;4.00;;
3847;SDS011;1939;48.720;9.166;2023-08-24T09:28:56;4.80;;;3.87;;
3847;SDS011;1939;48.720;9.166;2023-08-24T09:31:22;3.93;;;3.40;;
3847;SDS011;1939;48.720;9.166;2023-08-24T09:33:47;6.93;;;3.60;;
3847;SDS011;1939;48.720;9.166;2023-08-24T09:36:16;8.90;;;3.80;;
3847;SDS011;1939;48.720;9.166;2023-08-24T09:38:47;6.57;;;4.43;;
3847;SDS011;1939;48.720;9.166;2023-08-24T09:41:13;8.23;;;3.87;;
3847;SDS011;1939;48.720;9.166;2023-08-24T09:43:39;8.53;;;4.57;;
3847;SDS011;1939;48.720;9.166;2023-08-24T09:46:05;9.00;;;3.77;;
3847;SDS011;1939;48.720;9.166;2023-08-24T09:48:31;5.23;;;4.53;;
3847;SDS011;1939;48.720;9.166;2023-08-24T09:50:57;5.00;;;4.50;;
3847;SDS011;1939;48.720;9.166;2023-08-24T09:53:22;5.73;;;4.47;;
3847;SDS011;1939;48.720;9.166;2023-08-24T09:55:49;10.97;;;4.60;;
3847;SDS011;1939;48.720;9.166;2023-08-24T09:58:15;8.33;;;4.27;;
3847;SDS011;1939;48.720;9.166;2023-08-24T10:00:41;9.87;;;5.00;;
3847;SDS011;1939;48.720;9.166;2023-08-24T10:03:06;5.53;;;4.30;;
3847;SDS011;1939;48.720;9.166;2023-08-24T10:05:33;5.37;;;4.87;;
3847;SDS011;1939;48.720;9.166;2023-08-24T10:07:58;4.87;;;4.43;;
3847;SDS011;1939;48.720;9.166;2023-08-24T10:10:25;6.03;;;4.00;;
3847;SDS011;1939;48.720;9.166;2023-08-24T10:12:51;5.83;;;4.93;;
3847;SDS011;1939;48.720;9.166;2023-08-24T10:15:17;8.70;;;6.10;;
3847;SDS011;1939;48.720;9.166;2023-08-24T10:17:43;7.07;;;5.00;;
3847;SDS011;1939;48.720;9.166;2023-08-24T10:20:10;10.77;;;4.60;;
3847;SDS011;1939;48.720;9.166;2023-08-24T10:22:35;5.27;;;4.77;;
3847;SDS011;1939;48.720;9.166;2023-08-24T10:25:01;6.93;;;5.50;;
3847;SDS011;1939;48.720;9.166;2023-08-24T10:27:27;16.07;;;6.03;;
3847;SDS011;1939;48.720;9.166;2023-08-24T10:29:53;5.60;;;5.20;;
3847;SDS011;1939;48.720;9.166;2023-08-24T10:32:19;6.03;;;5.43;;
3847;SDS011;1939;48.720;9.166;2023-08-24T10:34:44;6.50;;;5.10;;
3847;SDS011;1939;48.720;9.166;2023-08-24T10:37:10;7.70;;;5.30;;
3847;SDS011;1939;48.720;9.166;2023-08-24T10:39:36;6.50;;;5.90;;
3847;SDS011;1939;48.720;9.166;2023-08-24T10:42:04;10.40;;;5.60;;
3847;SDS011;1939;48.720;9.166;2023-08-24T10:44:35;10.27;;;6.00;;
3847;SDS011;1939;48.720;9.166;2023-08-24T10:47:08;6.70;;;6.10;;
3847;SDS011;1939;48.720;9.166;2023-08-24T10:49:37;6.87;;;5.50;;
3847;SDS011;1939;48.720;9.166;2023-08-24T10:52:16;6.37;;;5.67;;
3847;SDS011;1939;48.720;9.166;2023-08-24T10:54:54;10.23;;;5.60;;
3847;SDS011;1939;48.720;9.166;2023-08-24T10:57:20;5.87;;;5.20;;
3847;SDS011;1939;48.720;9.166;2023-08-24T10:59:56;9.60;;;6.50;;
3847;SDS011;1939;48.720;9.166;2023-08-24T11:02:22;18.43;;;7.13;;
3847;SDS011;1939;48.720;9.166;2023-08-24T11:05:04;18.00;;;7.20;;
3847;SDS011;1939;48.720;9.166;2023-08-24T11:07:29;9.40;;;7.20;;
3847;SDS011;1939;48.720;9.166;2023-08-24T11:09:54;8.43;;;7.63;;
3847;SDS011;1939;48.720;9.166;2023-08-24T11:12:19;11.23;;;6.60;;
3847;SDS011;1939;48.720;9.166;2023-08-24T11:14:48;8.33;;;6.20;;
3847;SDS011;1939;48.720;9.166;2023-08-24T11:17:19;15.00;;;6.60;;
3847;SDS011;1939;48.720;9.166;2023-08-24T11:19:51;13.03;;;7.03;;
3847;SDS011;1939;48.720;9.166;2023-08-24T11:22:17;7.47;;;6.37;;
3847;SDS011;1939;48.720;9.166;2023-08-24T11:24:42;10.63;;;7.27;;
3847;SDS011;1939;48.720;9.166;2023-08-24T11:27:08;11.30;;;6.73;;
3847;SDS011;1939;48.720;9.166;2023-08-24T11:29:33;9.93;;;6.67;;
3847;SDS011;1939;48.720;9.166;2023-08-24T11:31:59;7.37;;;6.63;;
3847;SDS011;1939;48.720;9.166;2023-08-24T11:34:24;15.60;;;7.20;;
3847;SDS011;1939;48.720;9.166;2023-08-24T11:36:49;8.73;;;6.33;;
3847;SDS011;1939;48.720;9.166;2023-08-24T11:39:19;9.40;;;5.70;;
3847;SDS011;1939;48.720;9.166;2023-08-24T11:41:45;9.70;;;6.70;;
3847;SDS011;1939;48.720;9.166;2023-08-24T11:44:21;10.93;;;6.60;;
3847;SDS011;1939;48.720;9.166;2023-08-24T11:46:46;9.57;;;6.53;;
3847;SDS011;1939;48.720;9.166;2023-08-24T11:49:11;9.17;;;6.60;;
3847;SDS011;1939;48.720;9.166;2023-08-24T11:51:36;6.80;;;6.07;;
3847;SDS011;1939;48.720;9.166;2023-08-24T11:54:02;7.20;;;6.50;;
3847;SDS011;1939;48.720;9.166;2023-08-24T11:56:27;10.73;;;6.63;;
3847;SDS011;1939;48.720;9.166;2023-08-24T11:58:53;7.03;;;6.33;;
3847;SDS011;1939;48.720;9.166;2023-08-24T12:01:18;7.90;;;6.57;;
3847;SDS011;1939;48.720;9.166;2023-08-24T12:03:44;7.83;;;5.90;;
3847;SDS011;1939;48.720;9.166;2023-08-24T12:06:10;17.93;;;7.00;;
3847;SDS011;1939;48.720;9.166;2023-08-24T12:08:40;8.90;;;6.40;;
3847;SDS011;1939;48.720;9.166;2023-08-24T12:11:10;8.27;;;6.50;;
3847;SDS011;1939;48.720;9.166;2023-08-24T12:13:35;11.03;;;6.87;;
3847;SDS011;1939;48.720;9.166;2023-08-24T12:16:00;9.27;;;6.53;;
3847;SDS011;1939;48.720;9.166;2023-08-24T12:18:26;6.80;;;6.07;;
3847;SDS011;1939;48.720;9.166;2023-08-24T12:20:52;14.10;;;6.97;;
3847;SDS011;1939;48.720;9.166;2023-08-24T12:23:17;9.73;;;6.30;;
3847;SDS011;1939;48.720;9.166;2023-08-24T12:25:43;11.30;;;6.73;;
3847;SDS011;1939;48.720;9.166;2023-08-24T12:28:11;14.87;;;7.90;;
3847;SDS011;1939;48.720;9.166;2023-08-24T12:30:47;8.13;;;6.90;;
3847;SDS011;1939;48.720;9.166;2023-08-24T12:33:25;9.90;;;6.83;;
3847;SDS011;1939;48.720;9.166;2023-08-24T12:35:52;12.27;;;7.40;;
3847;SDS011;1939;48.720;9.166;2023-08-24T12:38:17;9.53;;;6.40;;
3847;SDS011;1939;48.720;9.166;2023-08-24T12:40:43;6.67;;;5.93;;
3847;SDS011;1939;48.720;9.166;2023-08-24T12:43:08;9.70;;;6.23;;
3847;SDS011;1939;48.720;9.166;2023-08-24T12:45:33;12.87;;;6.70;;
3847;SDS011;1939;48.720;9.166;2023-08-24T12:47:58;15.37;;;6.70;;
3847;SDS011;1939;48.720;9.166;2023-08-24T12:50:23;11.20;;;6.37;;
3847;SDS011;1939;48.720;9.166;2023-08-24T12:52:49;12.07;;;6.00;;
3847;SDS011;1939;48.720;9.166;2023-08-24T12:55:14;9.97;;;5.80;;
3847;SDS011;1939;48.720;9.166;2023-08-24T12:57:40;9.13;;;6.00;;
3847;SDS011;1939;48.720;9.166;2023-08-24T13:00:05;7.40;;;6.70;;
3847;SDS011;1939;48.720;9.166;2023-08-24T13:02:33;15.97;;;6.60;;
3847;SDS011;1939;48.720;9.166;2023-08-24T13:04:58;12.40;;;6.47;;
3847;SDS011;1939;48.720;9.166;2023-08-24T13:07:26;9.60;;;6.03;;
3847;SDS011;1939;48.720;9.166;2023-08-24T13:09:51;13.30;;;6.50;;
3847;SDS011;1939;48.720;9.166;2023-08-24T13:12:16;12.40;;;5.63;;
3847;SDS011;1939;48.720;9.166;2023-08-24T13:14:41;9.80;;;5.90;;
3847;SDS011;1939;48.720;9.166;2023-08-24T13:17:07;10.23;;;6.17;;
3847;SDS011;1939;48.720;9.166;2023-08-24T13:19:32;12.73;;;6.30;;
3847;SDS011;1939;48.720;9.166;2023-08-24T13:21:57;13.90;;;6.10;;
3847;SDS011;1939;48.720;9.166;2023-08-24T13:24:22;8.73;;;5.47;;
3847;SDS011;1939;48.720;9.166;2023-08-24T13:26:47;6.30;;;5.30;;
3847;SDS011;1939;48.720;9.166;2023-08-24T13:29:13;21.60;;;5.57;;
3847;SDS011;1939;48.720;9.166;2023-08-24T13:31:38;15.17;;;5.77;;
3847;SDS011;1939;48.720;9.166;2023-08-24T13:34:03;11.70;;;6.30;;
3847;SDS011;1939;48.720;9.166;2023-08-24T13:36:32;14.43;;;5.70;;
3847;SDS011;1939;48.720;9.166;2023-08-24T13:38:57;9.90;;;6.13;;
3847;SDS011;1939;48.720;9.166;2023-08-24T13:41:22;16.70;;;7.77;;
3847;SDS011;1939;48.720;9.166;2023-08-24T13:43:48;20.60;;;7.50;;
3847;SDS011;1939;48.720;9.166;2023-08-24T13:46:13;15.10;;;5.80;;
3847;SDS011;1939;48.720;9.166;2023-08-24T13:48:38;7.83;;;5.10;;
3847;SDS011;1939;48.720;9.166;2023-08-24T13:51:04;9.73;;;5.30;;
3847;SDS011;1939;48.720;9.166;2023-08-24T13:53:29;14.23;;;6.73;;
3847;SDS011;1939;48.720;9.166;2023-08-24T13:55:54;13.03;;;5.30;;
3847;SDS011;1939;48.720;9.166;2023-08-24T13:58:19;10.10;;;5.20;;
3847;SDS011;1939;48.720;9.166;2023-08-24T14:00:44;16.83;;;5.50;;
3847;SDS011;1939;48.720;9.166;2023-08-24T14:03:10;9.47;;;5.07;;
3847;SDS011;1939;48.720;9.166;2023-08-24T14:05:38;13.70;;;5.27;;
3847;SDS011;1939;48.720;9.166;2023-08-24T14:08:04;11.77;;;4.63;;
3847;SDS011;1939;48.720;9.166;2023-08-24T14:10:29;7.93;;;4.77;;
3847;SDS011;1939;48.720;9.166;2023-08-24T14:12:55;12.97;;;5.30;;
3847;SDS011;1939;48.720;9.166;2023-08-24T14:15:20;11.73;;;4.90;;
3847;SDS011;1939;48.720;9.166;2023-08-24T14:17:45;11.60;;;5.60;;
3847;SDS011;1939;48.720;9.166;2023-08-24T14:20:11;18.20;;;5.20;;
3847;SDS011;1939;48.720;9.166;2023-08-24T14:22:37;10.63;;;5.47;;
3847;SDS011;1939;48.720;9.166;2023-08-24T14:25:03;15.53;;;4.87;;
3847;SDS011;1939;48.720;9.166;2023-08-24T14:27:28;11.97;;;5.80;;
3847;SDS011;1939;48.720;9.166;2023-08-24T14:29:53;27.47;;;5.40;;
3847;SDS011;1939;48.720;9.166;2023-08-24T14:32:18;8.40;;;5.70;;
3847;SDS011;1939;48.720;9.166;2023-08-24T14:34:44;14.93;;;5.00;;
3847;SDS011;1939;48.720;9.166;2023-08-24T14:37:09;9.63;;;4.67;;
3847;SDS011;1939;48.720;9.166;2023-08-24T14:39:34;16.07;;;4.90;;
3847;SDS011;1939;48.720;9.166;2023-08-24T14:41:59;13.10;;;5.23;;
3847;SDS011;1939;48.720;9.166;2023-08-24T14:44:24;17.00;;;5.80;;
3847;SDS011;1939;48.720;9.166;2023-08-24T14:46:50;15.97;;;5.27;;
3847;SDS011;1939;48.720;9.166;2023-08-24T14:49:15;11.00;;;6.40;;
3847;SDS011;1939;48.720;9.166;2023-08-24T14:51:44;11.53;;;5.90;;
3847;SDS011;1939;48.720;9.166;2023-08-24T14:54:09;16.93;;;7.87;;
3847;SDS011;1939;48.720;9.166;2023-08-24T14:56:37;17.63;;;6.30;;